x

Lake Winnipeg S. Basin (45140) Weather Station

7:00pm - Sat 25th Oct 2014 All times are UTC.

  • Peak Period 2s
  • Wind
    13mph, 16mph gusts
  • Sea Temp 48°f
  • Air Temp 50°f
  • Sea Pressure 1014mb

More Historic Weather Station data

Upgrade to MSW Pro to gain access to the past 30 days of data for over 8000 Wavebouys and Weather Stations around the globe.

Join Pro

Comparision Forecast

View Surf forecast
   
Sat 10/25 7:00pm 2s 13 16 mph 1014mb 48f 50f
6:00pm 2s 16 22 mph 1014.1mb 48f 49f
5:00pm 2s 20 27 mph 1014mb 48f 48f
4:00pm 2s 25 29 mph 1013.9mb 48f 47f
3:00pm 2s 22 27 mph 1013.1mb 48f 46f
2:00pm  -  22
mph
1012.7mb 48f 46f
1:00pm 3s 20 25 mph 1012.2mb 49f 46f
12:00pm 3s 22 27 mph 1011.6mb 48f 46f
11:00am 3s 22 29 mph 1011.1mb 48f 47f
10:00am 3s 22 27 mph 1010.7mb 48f 47f
9:00am 3s 18 20 mph 1010.1mb 48f 47f
8:00am 3s 18 22 mph 1010mb 48f 48f
7:00am 3s 16
mph
1009.5mb 48f 48f
6:00am 3s 22 29 mph 1008.9mb 48f 49f
5:00am 3s 16 18 mph 1008.2mb 50f 49f
4:00am 3s 20 25 mph 1007.8mb 50f 49f
3:00am 3s 22 29 mph 1006.4mb 51f 51f
2:00am 3s 25 29 mph 1005mb 50f 54f
1:00am 3s 18 25 mph 1004mb 50f 55f
12:00am 3s 9
mph
1003.6mb 50f 52f
Fri 10/24 11:00pm 2s 22 27 mph 1003mb 50f 55f
10:00pm 2s 27 34 mph 1001.4mb 49f 58f
9:00pm 2s 16 25 mph 1000.3mb 49f 57f
8:00pm 2s 18 20 mph 1000.5mb 49f 55f
7:00pm 2s 13 18 mph 1000.9mb 48f 53f
6:00pm 2s 11 13 mph 1001.8mb 48f 51f
5:00pm 2s 16 20 mph 1001.5mb 49f 50f
4:00pm 3s 16 20 mph 1002.5mb 49f 49f
3:00pm 3s 16 18 mph 1002.4mb 48f 48f
2:00pm 3s 13 16 mph 1003.2mb 48f 48f
1:00pm 3s 11 13 mph 1003.5mb 48f 48f
12:00pm 3s 11 13 mph 1003.5mb 48f 48f
11:00am 3s 9 11 mph 1003.6mb 49f 49f
10:00am 3s 13 16 mph 1004mb 49f 49f
9:00am 3s 11 13 mph 1004.2mb 49f 49f
8:00am 3s 11
mph
1004.6mb 49f 50f
7:00am 3s 11 13 mph 1004.5mb 48f 50f
6:00am 3s 11 13 mph 1004.8mb 48f 50f
5:00am 3s 9
mph
1005.1mb 48f 50f
4:00am 3s 9
mph
1005.7mb 48f 50f
3:00am 3s 7 9 mph 1006.4mb 48f 49f
2:00am 3s 9
mph
1006.6mb 48f 50f
1:00am 3s 7 9 mph 1007.2mb 48f 50f
12:00am 3s 7
mph
1007mb 48f 50f
Thu 10/23 11:00pm 3s 7
mph
1007.4mb 48f 50f
10:00pm 3s 7 9 mph 1007.6mb 49f 50f
9:00pm 2s 7 9 mph 1007.8mb 48f 49f
8:00pm 2s 9
mph
1007.9mb 49f 49f
7:00pm 2s 4 7 mph 1008mb 49f 49f
6:00pm 3s 9 11 mph 1008mb 49f 49f
5:00pm 3s 9 11 mph 1007.9mb 50f 48f
4:00pm 3s 11 13 mph 1007.9mb 50f 48f
3:00pm 3s 9
mph
1007.5mb 50f 49f
2:00pm 3s 9 11 mph 1007.4mb 49f 49f
1:00pm 3s 7 9 mph 1007.2mb 49f 48f
12:00pm 3s 11 13 mph 1007mb 50f 49f
11:00am 3s 13 16 mph 1007mb 50f 49f
10:00am 3s 13 18 mph 1006.2mb 50f 49f
9:00am 3s 13 16 mph 1006.3mb 50f 49f
8:00am 3s 16 18 mph 1006.1mb 50f 50f
7:00am 3s 13 18 mph 1006.2mb 50f 50f
6:00am 3s 13 16 mph 1006.3mb 50f 50f
5:00am 3s 16 18 mph 1006.5mb 50f 50f
4:00am 3s 18 20 mph 1006.5mb 50f 51f
3:00am 3s 16 18 mph 1006.6mb 49f 51f
2:00am  -  18
mph
- - -
1:00am 3s 18 20 mph 1006.9mb 49f 52f
12:00am 3s 16 18 mph 1006.2mb 48f 53f
Wed 10/22 11:00pm 3s 16 18 mph 1006mb 48f 53f
10:00pm 3s 16 18 mph 1006.4mb 48f 53f
9:00pm 3s 16 20 mph 1005.9mb 48f 54f
7:00pm 2s 13
mph
1006.4mb 48f 51f
6:00pm 3s 18 22 mph 1007mb 48f 53f
5:00pm 3s 20 22 mph 1007.2mb 48f 53f
4:00pm 2s 18 22 mph 1007.3mb 48f 52f
3:00pm 2s 20 22 mph 1007.5mb 48f 51f
2:00pm 2s 22 25 mph 1006.9mb 48f 51f
1:00pm 3s 22 27 mph 1006.9mb 48f 51f
12:00pm 3s 18 22 mph 1007.6mb 48f 51f
11:00am 3s 18 22 mph 1008.1mb 48f 51f
10:00am 3s 18 22 mph 1008.1mb 48f 51f
9:00am 3s 18 22 mph 1008.3mb 48f 50f
8:00am 3s 22 27 mph 1008.6mb 48f 51f
7:00am 3s 22 27 mph 1009mb 48f 51f
5:00am 3s 20 25 mph 1009.7mb 48f 51f
4:00am 3s 20 22 mph 1010.1mb 48f 50f
3:00am 3s 18 20 mph 1010.7mb 48f 50f
2:00am 3s 18 22 mph 1011.2mb 48f 51f
1:00am 3s 18 22 mph 1011.2mb 48f 52f
12:00am 3s 18 20 mph 1011.1mb 48f 53f
Tue 10/21 11:00pm 2s 16 20 mph 1011mb 48f 53f
10:00pm 2s 16 18 mph 1011.2mb 49f 52f
9:00pm 2s 13 16 mph 1012.1mb 49f 53f